Have a Safe July 4th! 

Flight Track Log - Related Links

Times and Time Zones

All times are in EDT time to prevent confusion due to time zone crossing. See the FDX739 flight status page for this flight to view local times or setup timezone preferences in your user account.

Time Position Orientation Groundspeed Altitude Reporting Facility
EDT Latitude Longitude Course Direction KTS MPH feet Rate Location/Type
Wed 06:54:56 PM 39.8131 -82.9317 226° Southwest 157 181 1,300  Level Indianapolis Center
Wed 06:55:26 PM 39.7986 -82.9511 226° Southwest 152 175 2,500 1,895 Climbing Indianapolis Center
Wed 06:56:12 PM 39.7831 -83.0019 248° West 203 234 3,700 3,308 Climbing Indianapolis Center
Wed 06:57:13 PM 39.7708 -83.0989 261° West 261 300 8,400 -23 Climbing Indianapolis Center
Wed 07:02:49 PM 40.1950 -83.2220 261° West 19,000 -212 Climbing FlightAware ADS-B
Wed 07:03:23 PM 40.2480 -83.1710 36° Northeast 19,000 -820 Level FlightAware ADS-B
Wed 07:04:03 PM 40.3110 -83.1100 36° Northeast 19,000 -845 Level FlightAware ADS-B
Wed 07:04:43 PM 40.3730 -83.0490 37° Northeast 19,000 -876 Level FlightAware ADS-B
Wed 07:05:19 PM 40.4290 -82.9950 36° Northeast 19,000 -909 Level FlightAware ADS-B
Wed 07:06:03 PM 40.4960 -82.9290 37° Northeast 19,000 -942 Level FlightAware ADS-B
Wed 07:06:43 PM 40.5590 -82.8680 36° Northeast 19,000 -985 Level FlightAware ADS-B
Wed 07:08:08 PM 40.6810 -82.7480 37° Northeast 14,400 -1,027 Descending FlightAware ADS-B
Wed 07:09:00 PM 40.7570 -82.6730 37° Northeast 11,800 -803 Descending FlightAware ADS-B
Wed 07:11:36 PM 40.9530 -82.4770 37° Northeast 10,100 -659 Descending FlightAware ADS-B
Wed 07:13:11 PM 41.0480 -82.3530 45° Northeast 10,100 -660 Level FlightAware ADS-B
Wed 07:13:59 PM 41.0970 -82.2870 45° Northeast 10,000 -776 Descending FlightAware ADS-B
Wed 07:14:27 PM 41.1240 -82.2520 44° Northeast 9,200 -840 Descending FlightAware ADS-B
Wed 07:14:53 PM 41.1490 -82.2190 45° Northeast 8,500 -787 Descending FlightAware ADS-B
Wed 07:15:52 PM 41.2040 -82.1410 47° Northeast 7,200 -738 Descending FlightAware ADS-B
Wed 07:16:18 PM 41.2170 -82.1020 66° East 7,100 -647 Descending FlightAware ADS-B
Wed 07:16:35 PM 41.2270 -82.0700 67° East 7,100 -678 Level FlightAware ADS-B
Wed 07:17:04 PM 41.2420 -82.0240 67° East 7,100 -712 Level FlightAware ADS-B
Wed 07:17:32 PM 41.2570 -81.9770 67° East 7,100 -779 Level FlightAware ADS-B
Wed 07:17:59 PM 41.2720 -81.9320 66° East 7,100 -857 Level FlightAware ADS-B
Wed 07:18:11 PM 41.2790 -81.9110 66° East 7,100 -949 Level FlightAware ADS-B
Wed 07:18:23 PM 41.2870 -81.8930 59° Northeast 7,100 -996 Level FlightAware ADS-B
Wed 07:18:51 PM 41.3080 -81.8570 52° Northeast 7,100 -1,048 Level FlightAware ADS-B
Wed 07:19:20 PM 41.3280 -81.8220 53° Northeast 6,600 -1,194 Descending FlightAware ADS-B
Wed 07:19:47 PM 41.3480 -81.7900 50° Northeast 5,700 -1,221 Descending FlightAware ADS-B
Wed 07:20:11 PM 41.3660 -81.7610 50° Northeast 4,900 -1,076 Descending FlightAware ADS-B
Wed 07:20:35 PM 41.3830 -81.7320 52° Northeast 4,100 -893 Descending FlightAware ADS-B
Wed 07:21:03 PM 41.4040 -81.7000 49° Northeast 3,300 -619 Descending FlightAware ADS-B
Wed 07:21:32 PM 41.4240 -81.6680 50° Northeast 3,100 -174 Descending FlightAware ADS-B
Wed 07:22:00 PM 41.4420 -81.6420 47° Northeast 3,100  Level FlightAware ADS-B
Wed 07:22:12 PM 41.4520 -81.6380 17° North 3,100  Level FlightAware ADS-B

Login

Don't have an account? Register now (free) for customized features, flight alerts, and more!